createdAt,value
2017-12-16T00:01:14.951Z,3.00
2017-12-16T00:03:42.585Z,3.00
2017-12-16T00:06:10.481Z,3.00
2017-12-16T00:08:38.139Z,3.00
2017-12-16T00:11:05.735Z,3.00
2017-12-16T00:13:34.108Z,3.00
2017-12-16T00:16:02.482Z,3.10
2017-12-16T00:18:30.084Z,3.00
2017-12-16T00:20:57.659Z,3.10
2017-12-16T00:23:25.234Z,3.10
2017-12-16T00:25:52.827Z,3.10
2017-12-16T00:28:20.390Z,3.10
2017-12-16T00:30:47.961Z,3.20
2017-12-16T00:33:16.298Z,3.20
2017-12-16T00:35:43.873Z,3.30
2017-12-16T00:38:11.441Z,3.30
2017-12-16T00:40:39.046Z,3.30
2017-12-16T00:43:06.630Z,3.30
2017-12-16T00:45:34.377Z,3.30
2017-12-16T00:48:01.973Z,3.30
2017-12-16T00:50:29.535Z,3.40
2017-12-16T00:52:57.978Z,3.40
2017-12-16T00:55:25.535Z,3.40
2017-12-16T00:57:53.099Z,3.40
2017-12-16T01:00:20.726Z,3.40
2017-12-16T01:02:48.301Z,3.50
2017-12-16T01:05:15.888Z,3.50
2017-12-16T01:07:43.489Z,3.50
2017-12-16T01:10:11.103Z,3.50
2017-12-16T01:12:39.222Z,3.50
2017-12-16T01:15:06.902Z,3.50
2017-12-16T01:17:34.514Z,3.50
2017-12-16T01:20:02.158Z,3.60
2017-12-16T01:22:29.741Z,3.60
2017-12-16T01:24:57.302Z,3.60
2017-12-16T01:27:25.643Z,3.60
2017-12-16T01:29:53.282Z,3.60
2017-12-16T01:32:20.855Z,3.60
2017-12-16T01:35:01.107Z,3.60
2017-12-16T01:37:40.365Z,3.50
2017-12-16T01:40:08.694Z,3.50
2017-12-16T01:42:36.263Z,3.50
2017-12-16T01:45:04.581Z,3.50
2017-12-16T01:47:33.016Z,3.50
2017-12-16T01:50:00.603Z,3.50
2017-12-16T01:52:28.923Z,3.50
2017-12-16T01:54:56.486Z,3.50
2017-12-16T01:57:24.050Z,3.50
2017-12-16T01:59:51.750Z,3.50
2017-12-16T02:02:19.322Z,3.40
2017-12-16T02:04:46.881Z,3.40
2017-12-16T02:07:14.461Z,3.40
2017-12-16T02:09:42.872Z,3.50
2017-12-16T02:12:10.453Z,3.50
2017-12-16T02:14:38.165Z,3.50
2017-12-16T02:17:06.535Z,3.50
2017-12-16T02:19:34.081Z,3.50
2017-12-16T02:22:01.654Z,3.50
2017-12-16T02:24:29.261Z,3.60
2017-12-16T02:26:56.818Z,3.60
2017-12-16T02:29:24.374Z,3.60
2017-12-16T02:31:51.965Z,3.60
2017-12-16T02:34:19.527Z,3.60
2017-12-16T02:36:47.462Z,3.60
2017-12-16T02:39:15.008Z,3.60
2017-12-16T02:41:43.303Z,3.60
2017-12-16T02:44:10.973Z,3.50
2017-12-16T02:46:39.278Z,3.60
2017-12-16T02:49:06.823Z,3.60
2017-12-16T02:51:34.377Z,3.50
2017-12-16T02:54:01.939Z,3.50
2017-12-16T02:56:29.508Z,3.50
2017-12-16T02:58:57.090Z,3.50
2017-12-16T03:01:24.822Z,3.50
2017-12-16T03:03:52.389Z,3.50
2017-12-16T03:06:19.938Z,3.40
2017-12-16T03:08:47.525Z,3.40
2017-12-16T03:11:15.161Z,3.40
2017-12-16T03:13:43.486Z,3.30
2017-12-16T03:16:11.043Z,3.30
2017-12-16T03:18:38.590Z,3.30
2017-12-16T03:21:06.145Z,3.30
2017-12-16T03:23:33.706Z,3.30
2017-12-16T03:26:01.269Z,3.20
2017-12-16T03:28:28.850Z,3.20
2017-12-16T03:30:56.398Z,3.20
2017-12-16T03:33:23.963Z,3.20
2017-12-16T03:35:51.519Z,3.20
2017-12-16T03:38:19.080Z,3.20
2017-12-16T03:40:46.637Z,3.20
2017-12-16T03:43:14.197Z,3.30
2017-12-16T03:45:41.749Z,3.20
2017-12-16T03:48:09.294Z,3.20
2017-12-16T03:50:36.858Z,3.20
2017-12-16T03:53:05.246Z,3.20
2017-12-16T03:55:32.818Z,3.20
2017-12-16T03:58:00.377Z,3.20
2017-12-16T04:00:27.941Z,3.10
2017-12-16T04:02:55.503Z,3.10
2017-12-16T04:05:23.057Z,3.10
2017-12-16T04:07:50.596Z,3.10
2017-12-16T04:10:18.289Z,3.00
2017-12-16T04:12:45.865Z,3.10
2017-12-16T04:15:13.409Z,3.10
2017-12-16T04:17:40.970Z,3.10
2017-12-16T04:20:08.508Z,3.00
2017-12-16T04:22:36.056Z,3.00
2017-12-16T04:25:03.595Z,3.10
2017-12-16T04:27:31.145Z,3.10
2017-12-16T04:29:59.465Z,3.10
2017-12-16T04:32:27.047Z,3.10
2017-12-16T04:34:54.606Z,3.20
2017-12-16T04:37:22.205Z,3.20
2017-12-16T04:39:50.550Z,3.30
2017-12-16T04:42:18.122Z,3.20
2017-12-16T04:44:45.690Z,3.30
2017-12-16T04:47:13.245Z,3.30
2017-12-16T04:49:40.832Z,3.30
2017-12-16T04:52:08.401Z,3.30
2017-12-16T04:54:36.004Z,3.30
2017-12-16T04:57:03.552Z,3.30
2017-12-16T04:59:31.119Z,3.30
2017-12-16T05:01:58.746Z,3.40
2017-12-16T05:04:26.337Z,3.30
2017-12-16T05:06:53.899Z,3.40
2017-12-16T05:09:21.484Z,3.40
2017-12-16T05:11:49.053Z,3.40
2017-12-16T05:14:16.626Z,3.40
2017-12-16T05:16:44.310Z,3.40
2017-12-16T05:19:11.864Z,3.40
2017-12-16T05:21:40.020Z,3.40
2017-12-16T05:24:07.557Z,3.40
2017-12-16T05:26:36.085Z,3.30
2017-12-16T05:29:03.642Z,3.20
2017-12-16T05:31:31.477Z,3.20
2017-12-16T05:33:59.065Z,3.20
2017-12-16T05:36:27.397Z,3.20
2017-12-16T05:38:54.944Z,3.10
2017-12-16T05:41:22.545Z,3.10
2017-12-16T05:43:50.135Z,3.20
2017-12-16T05:46:18.499Z,3.10
2017-12-16T05:48:46.822Z,3.10
2017-12-16T05:51:14.376Z,3.10
2017-12-16T05:53:42.245Z,3.10
2017-12-16T05:56:09.813Z,3.00
2017-12-16T05:58:37.714Z,3.10
2017-12-16T06:01:05.272Z,3.10
2017-12-16T06:03:32.843Z,3.00
2017-12-16T06:06:00.414Z,3.00
2017-12-16T06:08:28.857Z,3.00
2017-12-16T06:10:56.449Z,3.00
2017-12-16T06:13:25.684Z,3.00
2017-12-16T06:15:53.241Z,3.00
2017-12-16T06:18:20.852Z,3.00
2017-12-16T06:20:48.413Z,3.00
2017-12-16T06:23:15.962Z,3.00
2017-12-16T06:25:43.608Z,3.00
2017-12-16T06:28:11.145Z,3.10
2017-12-16T06:30:38.719Z,3.10
2017-12-16T06:33:06.278Z,3.10
2017-12-16T06:35:34.677Z,2.70
2017-12-16T06:38:02.238Z,3.10
2017-12-16T06:40:29.860Z,3.10
2017-12-16T06:42:57.469Z,3.10
2017-12-16T06:45:25.050Z,3.10
2017-12-16T06:47:52.612Z,3.10
2017-12-16T06:50:21.057Z,3.10
2017-12-16T06:52:48.608Z,3.10
2017-12-16T06:55:16.173Z,3.00
2017-12-16T06:57:43.730Z,3.10
2017-12-16T07:00:11.290Z,3.20
2017-12-16T07:02:38.907Z,3.20
2017-12-16T07:05:07.226Z,3.20
2017-12-16T07:07:34.890Z,3.20
2017-12-16T07:10:02.462Z,3.20
2017-12-16T07:12:30.013Z,3.20
2017-12-16T07:14:57.585Z,3.20
2017-12-16T07:17:25.835Z,3.20
2017-12-16T07:19:53.399Z,3.30
2017-12-16T07:22:21.006Z,3.20
2017-12-16T07:24:48.705Z,3.20
2017-12-16T07:27:17.001Z,3.20
2017-12-16T07:29:44.574Z,3.20
2017-12-16T07:32:13.151Z,3.20
2017-12-16T07:34:41.575Z,3.20
2017-12-16T07:37:09.129Z,3.20
2017-12-16T07:39:36.710Z,3.20
2017-12-16T07:42:04.349Z,3.20
2017-12-16T07:44:31.942Z,3.20
2017-12-16T07:46:59.509Z,3.20
2017-12-16T07:49:27.842Z,3.30
2017-12-16T07:51:55.429Z,3.30
2017-12-16T07:54:23.007Z,3.30
2017-12-16T07:56:51.380Z,3.30
2017-12-16T07:59:19.705Z,3.30
2017-12-16T08:01:47.284Z,3.20
2017-12-16T08:04:14.862Z,3.20
2017-12-16T08:06:42.445Z,3.20
2017-12-16T08:09:10.795Z,3.20
2017-12-16T08:11:38.486Z,3.20
2017-12-16T08:14:06.062Z,3.20
2017-12-16T08:16:34.395Z,3.30
2017-12-16T08:19:01.987Z,3.30
2017-12-16T08:21:29.534Z,3.40
2017-12-16T08:23:57.114Z,3.30
2017-12-16T08:26:25.436Z,3.30
2017-12-16T08:28:53.025Z,3.30
2017-12-16T08:31:20.657Z,3.30
2017-12-16T08:33:48.230Z,3.30
2017-12-16T08:36:15.806Z,3.40
2017-12-16T08:38:43.426Z,3.40
2017-12-16T08:41:12.521Z,3.40
2017-12-16T08:43:40.092Z,3.40
2017-12-16T08:46:07.660Z,3.40
2017-12-16T08:48:35.236Z,3.40
2017-12-16T08:51:02.810Z,3.40
2017-12-16T08:53:30.383Z,3.40
2017-12-16T08:55:58.002Z,3.30
2017-12-16T08:58:25.557Z,3.30
2017-12-16T09:00:53.174Z,3.40
2017-12-16T09:03:21.594Z,3.50
2017-12-16T09:05:49.162Z,3.50
2017-12-16T09:08:16.740Z,3.50
2017-12-16T09:10:44.344Z,3.60
2017-12-16T09:13:11.946Z,3.60
2017-12-16T09:15:39.502Z,3.60
2017-12-16T09:18:07.102Z,3.60
2017-12-16T09:20:34.670Z,3.50
2017-12-16T09:23:02.328Z,3.60
2017-12-16T09:25:29.883Z,3.60
2017-12-16T09:27:57.471Z,3.70
2017-12-16T09:30:25.802Z,3.70
2017-12-16T09:32:53.414Z,3.70
2017-12-16T09:35:21.736Z,3.70
2017-12-16T09:37:49.310Z,3.70
2017-12-16T09:40:16.893Z,3.70
2017-12-16T09:42:44.478Z,3.70
2017-12-16T09:45:12.789Z,3.70
2017-12-16T09:47:40.500Z,3.70
2017-12-16T09:50:08.072Z,3.60
2017-12-16T09:52:36.411Z,3.50
2017-12-16T09:55:04.773Z,3.60
2017-12-16T09:57:32.346Z,3.50
2017-12-16T09:59:59.939Z,4.00
2017-12-16T10:02:27.509Z,4.80
2017-12-16T10:04:55.080Z,5.30
2017-12-16T10:07:23.439Z,5.60
2017-12-16T10:09:51.004Z,5.60
2017-12-16T10:12:18.578Z,5.60
2017-12-16T10:14:46.942Z,5.80
2017-12-16T10:17:14.614Z,5.80
2017-12-16T10:19:42.946Z,5.50
2017-12-16T10:22:10.525Z,5.40
2017-12-16T10:24:38.990Z,5.40
2017-12-16T10:27:06.578Z,5.50
2017-12-16T10:29:34.174Z,5.90
2017-12-16T10:32:01.804Z,6.20
2017-12-16T10:34:29.403Z,6.20
2017-12-16T10:36:56.970Z,6.10
2017-12-16T10:39:24.562Z,6.00
2017-12-16T10:41:52.919Z,6.00
2017-12-16T10:44:20.533Z,5.90
2017-12-16T10:46:48.090Z,5.90
2017-12-16T10:49:15.683Z,6.10
2017-12-16T10:51:44.023Z,6.40
2017-12-16T10:54:11.646Z,6.30
2017-12-16T10:56:39.227Z,6.60
2017-12-16T10:59:06.799Z,6.60
2017-12-16T11:01:34.428Z,6.60
2017-12-16T11:04:01.998Z,6.60
2017-12-16T11:06:29.629Z,6.20
2017-12-16T11:08:57.211Z,5.90
2017-12-16T11:11:25.767Z,5.80
2017-12-16T11:13:54.080Z,5.90
2017-12-16T11:16:21.656Z,5.90
2017-12-16T11:18:49.231Z,6.10
2017-12-16T11:21:16.818Z,6.10
2017-12-16T11:23:44.396Z,5.90
2017-12-16T11:26:11.977Z,5.70
2017-12-16T11:28:39.561Z,5.60
2017-12-16T11:31:07.232Z,5.60
2017-12-16T11:33:34.819Z,5.50
2017-12-16T11:36:02.379Z,5.50
2017-12-16T11:38:29.961Z,5.60
2017-12-16T11:40:58.281Z,5.50
2017-12-16T11:43:25.863Z,5.50
2017-12-16T11:45:53.449Z,5.50
2017-12-16T11:48:21.105Z,5.40
2017-12-16T11:50:48.682Z,5.50
2017-12-16T11:53:17.024Z,5.50
2017-12-16T11:55:44.628Z,5.50
2017-12-16T11:58:24.778Z,5.30
2017-12-16T12:00:52.502Z,5.30
2017-12-16T12:03:21.424Z,5.20
2017-12-16T12:05:49.022Z,5.20
2017-12-16T12:08:16.637Z,5.20
2017-12-16T12:10:44.181Z,5.20
2017-12-16T12:13:11.776Z,5.20
2017-12-16T12:15:40.106Z,5.40
2017-12-16T12:18:07.743Z,5.40
2017-12-16T12:20:35.337Z,5.40
2017-12-16T12:23:02.917Z,5.40
2017-12-16T12:25:30.528Z,5.40
2017-12-16T12:27:58.219Z,5.50
2017-12-16T12:30:26.099Z,5.60
2017-12-16T12:32:54.487Z,5.50
2017-12-16T12:35:22.041Z,5.50
2017-12-16T12:37:54.544Z,5.50
2017-12-16T12:40:47.236Z,5.30
2017-12-16T13:25:45.448Z,5.20
2017-12-16T13:28:13.009Z,5.10
2017-12-16T13:30:40.666Z,5.20
2017-12-16T13:33:08.230Z,5.20
2017-12-16T13:35:35.882Z,5.30
2017-12-16T13:38:03.444Z,5.40
2017-12-16T13:40:31.037Z,5.40
2017-12-16T13:42:59.386Z,5.40
2017-12-16T13:45:27.118Z,5.40
2017-12-16T13:47:54.712Z,5.40
2017-12-16T13:50:22.272Z,5.40
2017-12-16T13:52:50.601Z,5.30
2017-12-16T13:55:19.081Z,5.20
2017-12-16T13:57:47.559Z,5.20
2017-12-16T14:00:15.333Z,5.20
2017-12-16T14:02:42.928Z,5.20
2017-12-16T14:05:10.493Z,5.20
2017-12-16T14:07:38.157Z,5.30
2017-12-16T14:10:05.721Z,5.30
2017-12-16T14:12:33.286Z,5.20
2017-12-16T14:15:00.910Z,5.20
2017-12-16T14:17:29.390Z,5.20
2017-12-16T14:19:56.982Z,5.10
2017-12-16T14:22:24.558Z,5.10
2017-12-16T14:24:52.898Z,5.00
2017-12-16T14:27:20.455Z,5.00
2017-12-16T14:29:48.010Z,5.00
2017-12-16T14:32:15.793Z,5.00
2017-12-16T14:34:43.413Z,4.90
2017-12-16T14:37:11.801Z,4.90
2017-12-16T14:39:40.170Z,4.90
2017-12-16T14:42:08.599Z,4.90
2017-12-16T14:44:36.191Z,4.90
2017-12-16T14:47:03.823Z,4.80
2017-12-16T14:49:31.371Z,4.80
2017-12-16T14:51:59.073Z,4.80
2017-12-16T14:54:26.628Z,4.80
2017-12-16T14:56:54.240Z,4.80
2017-12-16T14:59:21.810Z,4.70
2017-12-16T15:01:49.405Z,4.80
2017-12-16T15:04:16.995Z,4.80
2017-12-16T15:06:45.381Z,4.80
2017-12-16T15:09:13.736Z,4.80
2017-12-16T15:11:41.317Z,4.70
2017-12-16T15:14:09.737Z,4.80
2017-12-16T15:16:37.487Z,4.70
2017-12-16T15:19:05.111Z,4.80
2017-12-16T15:21:32.722Z,4.70
2017-12-16T15:24:00.321Z,4.70
2017-12-16T15:26:27.914Z,4.70
2017-12-16T15:28:56.280Z,4.60
2017-12-16T15:31:24.642Z,4.50
2017-12-16T15:33:53.029Z,4.50
2017-12-16T15:36:20.630Z,4.50
2017-12-16T15:38:48.964Z,4.50
2017-12-16T15:41:16.564Z,4.50
2017-12-16T15:43:44.933Z,4.50
2017-12-16T15:46:13.298Z,4.50
2017-12-16T15:48:40.882Z,4.50
2017-12-16T15:51:09.248Z,4.50
2017-12-16T15:53:38.530Z,4.50
2017-12-16T15:56:06.138Z,4.50
2017-12-16T15:58:33.726Z,4.50
2017-12-16T16:01:01.326Z,4.40
2017-12-16T16:03:28.922Z,4.40
2017-12-16T16:05:56.532Z,4.30
2017-12-16T16:08:24.109Z,4.30
2017-12-16T16:10:51.745Z,4.30
2017-12-16T16:13:19.329Z,4.20
2017-12-16T16:15:46.884Z,4.20
2017-12-16T16:18:14.462Z,4.20
2017-12-16T16:20:42.797Z,4.10
2017-12-16T16:23:10.439Z,4.10
2017-12-16T16:25:38.003Z,4.00
2017-12-16T16:28:05.598Z,4.00
2017-12-16T16:30:33.194Z,4.00
2017-12-16T16:33:01.556Z,4.00
2017-12-16T16:35:29.173Z,3.90
2017-12-16T16:37:56.737Z,4.00
2017-12-16T16:40:24.350Z,4.00
2017-12-16T16:42:52.692Z,4.00
2017-12-16T16:45:20.277Z,4.00
2017-12-16T16:47:47.851Z,4.00
2017-12-16T16:50:16.190Z,4.00
2017-12-16T16:52:43.761Z,3.90
2017-12-16T16:55:11.346Z,3.90
2017-12-16T16:57:38.934Z,3.90
2017-12-16T17:00:06.501Z,3.80
2017-12-16T17:02:34.074Z,3.80
2017-12-16T17:05:01.666Z,3.80
2017-12-16T17:07:29.212Z,3.80
2017-12-16T17:09:56.842Z,3.80
2017-12-16T17:12:24.446Z,3.80
2017-12-16T17:14:52.028Z,3.80
2017-12-16T17:17:19.617Z,3.80
2017-12-16T17:19:47.934Z,3.80
2017-12-16T17:22:15.574Z,3.80
2017-12-16T17:24:43.121Z,3.80
2017-12-16T17:27:11.482Z,3.70
2017-12-16T17:29:39.869Z,3.70
2017-12-16T17:32:08.194Z,3.70
2017-12-16T17:34:35.804Z,3.70
2017-12-16T17:37:04.130Z,3.70
2017-12-16T17:39:31.985Z,3.70
2017-12-16T17:41:59.603Z,3.70
2017-12-16T17:44:27.164Z,3.70
2017-12-16T17:46:54.750Z,3.80
2017-12-16T17:49:22.339Z,3.80
2017-12-16T17:51:49.917Z,3.90
2017-12-16T17:54:17.521Z,3.80
2017-12-16T17:56:45.915Z,3.80
2017-12-16T17:59:13.481Z,3.80
2017-12-16T18:01:41.074Z,3.80
2017-12-16T18:04:08.646Z,3.80
2017-12-16T18:06:36.251Z,3.80
2017-12-16T18:09:03.846Z,3.80
2017-12-16T18:11:31.421Z,3.80
2017-12-16T18:13:59.407Z,3.80
2017-12-16T18:16:27.053Z,3.70
2017-12-16T18:18:54.661Z,3.70
2017-12-16T18:21:23.021Z,3.60
2017-12-16T18:23:50.654Z,3.60
2017-12-16T18:26:18.262Z,3.60
2017-12-16T18:28:46.589Z,3.50
2017-12-16T18:31:14.162Z,3.50
2017-12-16T18:33:41.924Z,3.60
2017-12-16T18:36:09.490Z,3.60
2017-12-16T18:38:37.094Z,3.60
2017-12-16T18:41:05.449Z,3.70
2017-12-16T18:43:33.066Z,3.60
2017-12-16T18:46:00.671Z,3.70
2017-12-16T18:48:28.246Z,3.70
2017-12-16T18:50:56.585Z,3.70
2017-12-16T18:53:24.205Z,3.60
2017-12-16T18:55:52.734Z,3.60
2017-12-16T18:58:20.320Z,3.60
2017-12-16T19:00:47.919Z,3.50
2017-12-16T19:03:15.543Z,3.50
2017-12-16T19:05:43.235Z,3.40
2017-12-16T19:08:11.608Z,3.30
2017-12-16T19:10:39.978Z,3.30
2017-12-16T19:13:08.770Z,3.30
2017-12-16T19:15:37.186Z,3.40
2017-12-16T19:18:04.759Z,3.40
2017-12-16T19:20:33.202Z,3.40
2017-12-16T19:23:01.149Z,3.40
2017-12-16T19:25:32.271Z,3.40
2017-12-16T19:28:01.587Z,3.40
2017-12-16T19:30:33.640Z,3.40
2017-12-16T19:33:03.523Z,3.40
2017-12-16T19:35:31.227Z,3.40
2017-12-16T19:38:00.636Z,3.30
2017-12-16T19:40:29.983Z,3.20
2017-12-16T19:42:57.591Z,3.10
2017-12-16T19:45:25.133Z,3.10
2017-12-16T19:47:52.716Z,3.00
2017-12-16T19:50:20.309Z,3.10
2017-12-16T19:52:48.686Z,3.10
2017-12-16T19:55:18.185Z,3.10
2017-12-16T19:57:49.240Z,3.10
2017-12-16T20:00:21.864Z,3.10
2017-12-16T20:02:51.831Z,3.10
2017-12-16T20:05:24.195Z,3.00
2017-12-16T20:07:52.633Z,2.90
2017-12-16T20:10:20.924Z,2.90
2017-12-16T20:12:48.503Z,2.90
2017-12-16T20:15:17.436Z,2.90
2017-12-16T20:17:45.025Z,3.00
2017-12-16T20:20:12.615Z,3.10
2017-12-16T20:22:40.197Z,3.20
2017-12-16T20:25:08.544Z,3.20
2017-12-16T20:27:36.103Z,3.20
2017-12-16T20:30:03.689Z,3.20
2017-12-16T20:32:32.749Z,3.20
2017-12-16T20:35:03.272Z,3.20
2017-12-16T20:37:34.518Z,3.30
2017-12-16T20:40:02.096Z,3.30
2017-12-16T20:42:29.690Z,3.30
2017-12-16T20:44:58.023Z,3.30
2017-12-16T20:47:25.614Z,3.30
2017-12-16T20:49:53.207Z,3.30
2017-12-16T20:52:20.784Z,3.30
2017-12-16T20:54:48.442Z,3.30
2017-12-16T20:57:16.026Z,3.30
2017-12-16T20:59:43.645Z,3.20
2017-12-16T21:02:12.015Z,3.30
2017-12-16T21:04:40.617Z,3.30
2017-12-16T21:07:11.567Z,3.20
2017-12-16T21:09:40.501Z,3.30
2017-12-16T21:12:08.078Z,3.30
2017-12-16T21:14:36.800Z,3.30
2017-12-16T21:17:04.439Z,3.30
2017-12-16T21:19:32.084Z,3.40
2017-12-16T21:21:59.667Z,3.40
2017-12-16T21:24:28.053Z,3.40
2017-12-16T21:26:56.416Z,3.40
2017-12-16T21:29:24.028Z,3.40
2017-12-16T21:31:51.612Z,3.40
2017-12-16T21:34:19.203Z,3.40
2017-12-16T21:36:47.121Z,3.40
2017-12-16T21:39:15.086Z,3.30
2017-12-16T21:41:43.747Z,3.30
2017-12-16T21:44:16.525Z,3.30
2017-12-16T21:46:46.021Z,3.20
2017-12-16T21:49:15.497Z,3.20
2017-12-16T21:51:44.101Z,3.20
2017-12-16T21:54:14.707Z,3.10
2017-12-16T21:56:43.641Z,3.20
2017-12-16T21:59:12.249Z,3.10
2017-12-16T22:01:41.243Z,3.10
2017-12-16T22:04:08.859Z,3.10
2017-12-16T22:06:38.334Z,3.10
2017-12-16T22:09:08.536Z,3.10
2017-12-16T22:11:36.182Z,3.10
2017-12-16T22:14:04.522Z,3.10
2017-12-16T22:16:32.794Z,3.10
2017-12-16T22:19:00.370Z,3.10
2017-12-16T22:21:27.963Z,3.10
2017-12-16T22:23:56.189Z,3.10
2017-12-16T22:26:23.812Z,3.10
2017-12-16T22:28:51.402Z,3.10
2017-12-16T22:31:19.001Z,3.10
2017-12-16T22:33:47.397Z,3.10
2017-12-16T22:36:16.661Z,3.10
2017-12-16T22:38:44.285Z,3.10
2017-12-16T22:41:11.943Z,3.10
2017-12-16T22:43:39.662Z,3.10
2017-12-16T22:46:07.223Z,3.10
2017-12-16T22:48:34.810Z,3.10
2017-12-16T22:51:03.173Z,3.00
2017-12-16T22:53:31.573Z,3.00
2017-12-16T22:55:59.113Z,3.00
2017-12-16T22:58:27.495Z,2.90
2017-12-16T23:00:55.889Z,2.90
2017-12-16T23:03:23.458Z,2.80
2017-12-16T23:05:51.061Z,2.80
2017-12-16T23:08:18.605Z,2.90
2017-12-16T23:10:46.189Z,2.90
2017-12-16T23:13:15.692Z,3.00
2017-12-16T23:15:43.258Z,3.00
2017-12-16T23:18:10.834Z,3.00
2017-12-16T23:20:38.409Z,3.00
2017-12-16T23:23:06.784Z,3.00
2017-12-16T23:25:35.110Z,3.00
2017-12-16T23:28:02.707Z,3.00
2017-12-16T23:30:30.262Z,3.00
2017-12-16T23:32:57.850Z,3.00
2017-12-16T23:35:26.242Z,3.00
2017-12-16T23:37:54.592Z,3.00
2017-12-16T23:40:22.172Z,3.00
2017-12-16T23:42:50.542Z,3.00
2017-12-16T23:45:18.092Z,3.00
2017-12-16T23:47:46.437Z,3.00
2017-12-16T23:50:14.020Z,3.00
2017-12-16T23:52:41.591Z,3.00
2017-12-16T23:55:09.206Z,3.00
2017-12-16T23:57:36.794Z,2.90
